Time;durP1;ratioP1;P1;durP2;ratioP2;P2;SDS_P1;SDS_P2;PMS_P1;PMS_P2;Temp;Humidity;BMP_temperature;BMP_pressure;BME280_temperature;BME280_humidity;BME280_pressure;Samples;Min_cycle;Max_cycle;Signal;HPM_P1;HPM_P2
2021/12/20 00:00:56;;;;;;;54.90;7.07;;;-0.70;99.90;;;;;;2079677;28;20196;-68
2021/12/20 00:01:58;;;;;;;39.15;5.35;;;-0.80;99.90;;;;;;2080237;28;20427;-68
2021/12/20 00:03:01;;;;;;;62.65;7.15;;;-0.80;99.90;;;;;;2071669;28;20244;-69
2021/12/20 00:04:02;;;;;;;44.33;7.32;;;-0.80;99.90;;;;;;2065932;28;20187;-68
2021/12/20 00:05:03;;;;;;;87.10;9.60;;;-0.80;99.90;;;;;;2079661;28;20625;-68
2021/12/20 00:06:04;;;;;;;100.18;11.63;;;-0.80;99.90;;;;;;2080130;28;20203;-69
2021/12/20 00:07:05;;;;;;;69.13;11.40;;;-0.80;99.90;;;;;;2080291;28;20272;-69
2021/12/20 00:08:05;;;;;;;24.97;6.20;;;-0.80;99.90;;;;;;2081264;28;20173;-68
2021/12/20 00:09:06;;;;;;;24.70;5.20;;;-0.70;99.90;;;;;;2080303;28;20746;-68
2021/12/20 00:10:07;;;;;;;50.23;7.30;;;-0.70;99.90;;;;;;2080271;28;20292;-69
2021/12/20 00:11:08;;;;;;;80.47;9.60;;;-0.60;99.90;;;;;;2080657;28;20169;-67
2021/12/20 00:12:09;;;;;;;52.73;6.50;;;-0.60;99.90;;;;;;2080730;28;20189;-68
2021/12/20 00:13:10;;;;;;;78.33;9.20;;;-0.60;99.90;;;;;;2080567;28;20247;-67
2021/12/20 00:14:11;;;;;;;55.17;8.70;;;-0.60;99.90;;;;;;2080382;28;20188;-68
2021/12/20 00:15:12;;;;;;;43.87;7.23;;;-0.60;99.90;;;;;;2081509;28;20641;-68
2021/12/20 00:16:12;;;;;;;44.83;5.88;;;-0.60;99.90;;;;;;2080415;28;20216;-68
2021/12/20 00:17:13;;;;;;;59.67;8.53;;;-0.60;99.90;;;;;;2079779;28;20173;-69
2021/12/20 00:18:14;;;;;;;19.93;4.73;;;-0.60;99.90;;;;;;2080414;28;20227;-68
2021/12/20 00:19:15;;;;;;;27.63;5.10;;;-0.60;99.90;;;;;;2080026;28;20193;-68
2021/12/20 00:20:17;;;;;;;74.97;9.73;;;-0.60;99.90;;;;;;2080069;28;20176;-68
2021/12/20 00:21:18;;;;;;;86.22;12.10;;;-0.60;99.90;;;;;;2080164;28;20173;-68
2021/12/20 00:22:19;;;;;;;26.02;5.82;;;-0.60;99.90;;;;;;2080196;28;20173;-68
2021/12/20 00:23:20;;;;;;;23.73;5.73;;;-0.60;99.90;;;;;;2072148;28;20170;-69
2021/12/20 00:24:21;;;;;;;33.83;6.80;;;-0.50;99.90;;;;;;2080434;28;20184;-68
2021/12/20 00:25:21;;;;;;;33.43;7.07;;;-0.50;99.90;;;;;;2080726;28;20231;-68
2021/12/20 00:26:22;;;;;;;24.10;6.00;;;-0.50;99.90;;;;;;2080913;28;20208;-68
2021/12/20 00:27:23;;;;;;;53.33;9.43;;;-0.50;99.90;;;;;;2075448;28;20173;-68
2021/12/20 00:28:23;;;;;;;75.27;10.30;;;-0.50;99.90;;;;;;2080280;28;20204;-68
2021/12/20 00:29:24;;;;;;;40.13;7.23;;;-0.50;99.90;;;;;;2080281;28;20661;-68
2021/12/20 00:30:25;;;;;;;44.63;8.13;;;-0.50;99.90;;;;;;2080850;28;20209;-68
2021/12/20 00:31:26;;;;;;;21.40;5.70;;;-0.50;99.90;;;;;;2080621;28;20598;-68
2021/12/20 00:32:27;;;;;;;46.90;9.60;;;-0.50;99.90;;;;;;2080848;28;20660;-68
2021/12/20 00:33:33;;;;;;;23.27;6.50;;;-0.40;99.90;;;;;;2080867;28;20196;-68
2021/12/20 00:34:35;;;;;;;38.80;8.07;;;-0.30;99.90;;;;;;2080010;28;20208;-68
2021/12/20 00:35:36;;;;;;;58.65;9.57;;;-0.30;99.90;;;;;;2081821;28;20591;-68
2021/12/20 00:36:36;;;;;;;65.77;10.87;;;-0.40;99.90;;;;;;2082363;28;20287;-68
2021/12/20 00:40:22;;;;;;;20.88;6.32;;;-0.40;99.90;;;;;;2078689;28;20205;-68
2021/12/20 00:41:23;;;;;;;27.90;7.40;;;-0.40;99.90;;;;;;2081837;28;20683;-69
2021/12/20 00:42:24;;;;;;;22.42;6.70;;;-0.40;99.90;;;;;;2081296;28;20185;-68
2021/12/20 00:43:25;;;;;;;89.17;11.83;;;-0.40;99.90;;;;;;2076199;28;20182;-68
2021/12/20 00:44:26;;;;;;;43.95;10.23;;;-0.40;99.90;;;;;;2074245;28;20693;-68
2021/12/20 00:45:32;;;;;;;47.63;10.93;;;-0.30;99.90;;;;;;2074025;28;20197;-68
2021/12/20 00:46:32;;;;;;;60.83;11.57;;;-0.30;99.90;;;;;;2074212;28;20599;-68
2021/12/20 00:47:33;;;;;;;79.33;14.20;;;-0.30;99.90;;;;;;2073433;28;20204;-68
2021/12/20 00:48:34;;;;;;;52.73;12.40;;;-0.30;99.90;;;;;;2073624;28;20205;-68
2021/12/20 00:49:35;;;;;;;31.58;8.15;;;-0.30;99.90;;;;;;2074098;28;20181;-68
2021/12/20 00:50:38;;;;;;;28.60;6.30;;;-0.20;99.90;;;;;;2073573;28;20594;-68
2021/12/20 00:51:39;;;;;;;22.13;6.70;;;-0.20;99.90;;;;;;2073578;28;20177;-68
2021/12/20 00:52:42;;;;;;;24.30;7.73;;;-0.30;99.90;;;;;;2074068;28;20178;-68
2021/12/20 00:53:42;;;;;;;35.35;9.85;;;-0.30;99.90;;;;;;2074090;28;20181;-68
2021/12/20 00:54:43;;;;;;;33.23;8.53;;;-0.20;99.90;;;;;;2073339;28;20178;-68
2021/12/20 00:55:44;;;;;;;21.33;6.37;;;-0.20;99.90;;;;;;2073539;28;20173;-68
2021/12/20 00:56:44;;;;;;;36.83;8.97;;;-0.20;99.90;;;;;;2074068;28;20166;-68
2021/12/20 00:57:51;;;;;;;24.20;7.67;;;-0.30;99.90;;;;;;2074049;28;20181;-68
2021/12/20 00:58:51;;;;;;;34.03;7.82;;;-0.30;99.90;;;;;;2073425;28;20180;-68
2021/12/20 00:59:52;;;;;;;24.73;7.27;;;-0.30;99.90;;;;;;2073501;28;20236;-67
2021/12/20 01:00:54;;;;;;;25.23;6.77;;;-0.20;99.90;;;;;;2074063;28;20648;-67
2021/12/20 01:01:55;;;;;;;28.88;7.70;;;-0.20;99.90;;;;;;2074104;28;20252;-67
2021/12/20 01:02:57;;;;;;;36.87;9.90;;;-0.20;99.90;;;;;;2073994;28;20559;-67
2021/12/20 01:03:58;;;;;;;19.38;7.50;;;-0.20;99.90;;;;;;2073470;28;20256;-67
2021/12/20 01:04:58;;;;;;;49.07;10.03;;;-0.20;99.90;;;;;;2073272;28;20209;-67
2021/12/20 01:06:01;;;;;;;23.40;7.63;;;-0.20;99.90;;;;;;2073936;28;20198;-67
2021/12/20 01:07:02;;;;;;;27.85;8.65;;;-0.20;99.90;;;;;;2073970;28;20546;-67
2021/12/20 01:08:05;;;;;;;25.97;8.33;;;-0.10;99.90;;;;;;2074147;28;20190;-67
2021/12/20 01:09:07;;;;;;;20.60;8.05;;;-0.10;99.90;;;;;;2073885;28;20204;-67
2021/12/20 01:10:09;;;;;;;29.90;8.15;;;-0.10;99.90;;;;;;2073940;28;20219;-67
2021/12/20 01:11:10;;;;;;;30.27;8.90;;;-0.10;99.90;;;;;;2073943;28;20517;-67
2021/12/20 01:12:17;;;;;;;29.80;8.57;;;-0.10;99.90;;;;;;2073998;28;20184;-67
2021/12/20 01:13:21;;;;;;;39.15;9.77;;;-0.10;99.90;;;;;;2073968;28;20177;-67
2021/12/20 01:14:24;;;;;;;21.25;8.05;;;-0.10;99.90;;;;;;2073897;28;20170;-68
2021/12/20 01:15:35;;;;;;;29.35;9.93;;;0.00;99.90;;;;;;2073756;28;20235;-67
2021/12/20 01:16:36;;;;;;;26.38;9.10;;;0.00;99.90;;;;;;2073346;28;20182;-67
2021/12/20 01:17:36;;;;;;;19.63;7.63;;;0.00;99.90;;;;;;2073309;28;20708;-67
2021/12/20 01:18:37;;;;;;;30.50;8.93;;;0.00;99.90;;;;;;2073902;28;20170;-67
2021/12/20 01:19:39;;;;;;;24.93;8.20;;;0.00;99.90;;;;;;2073789;28;20200;-67
2021/12/20 01:20:41;;;;;;;15.88;6.78;;;0.00;99.90;;;;;;2073323;28;20178;-67
2021/12/20 01:21:42;;;;;;;20.58;7.93;;;0.00;99.90;;;;;;2073328;28;20257;-67
2021/12/20 01:22:45;;;;;;;25.10;8.67;;;0.00;99.90;;;;;;2073977;28;20653;-67
2021/12/20 01:23:45;;;;;;;28.50;7.03;;;0.00;99.90;;;;;;2073913;28;20158;-67
2021/12/20 01:24:46;;;;;;;21.00;6.83;;;0.00;99.90;;;;;;2073708;28;20178;-67
2021/12/20 01:25:47;;;;;;;20.57;7.57;;;-0.10;99.90;;;;;;2073886;28;20170;-67
2021/12/20 01:26:48;;;;;;;15.27;6.67;;;-0.10;99.90;;;;;;2073212;28;20188;-67
2021/12/20 01:27:49;;;;;;;20.23;6.33;;;-0.10;99.90;;;;;;2073290;28;20177;-67
2021/12/20 01:28:50;;;;;;;22.83;5.90;;;-0.10;99.90;;;;;;2073824;28;20253;-67
2021/12/20 01:29:50;;;;;;;13.87;5.53;;;0.00;99.90;;;;;;2073653;28;20177;-67
2021/12/20 01:30:51;;;;;;;11.60;4.70;;;0.00;99.90;;;;;;2073862;28;20201;-67
2021/12/20 01:31:52;;;;;;;16.00;6.80;;;0.00;99.90;;;;;;2073853;28;20181;-67
2021/12/20 01:32:53;;;;;;;20.20;6.67;;;0.00;99.90;;;;;;2073878;28;20189;-67
2021/12/20 01:33:54;;;;;;;20.25;6.80;;;0.00;99.90;;;;;;2073762;28;20181;-67
2021/12/20 01:34:54;;;;;;;18.80;7.30;;;0.00;99.90;;;;;;2073659;28;20182;-68
2021/12/20 01:35:56;;;;;;;24.97;8.60;;;0.00;99.90;;;;;;2073727;28;20752;-67
2021/12/20 01:36:57;;;;;;;15.80;6.65;;;0.00;99.90;;;;;;2073713;28;20713;-67
2021/12/20 01:37:57;;;;;;;19.40;7.30;;;0.10;99.90;;;;;;2073743;28;20197;-67
2021/12/20 01:38:58;;;;;;;20.60;8.10;;;0.10;99.90;;;;;;2073753;28;20273;-67
2021/12/20 01:39:59;;;;;;;22.87;9.07;;;0.10;99.90;;;;;;2073103;28;20640;-67
2021/12/20 01:41:00;;;;;;;20.10;7.57;;;0.10;99.90;;;;;;2073152;28;20170;-67
2021/12/20 01:42:04;;;;;;;19.20;7.33;;;0.10;99.90;;;;;;2073176;28;20177;-67
2021/12/20 01:43:07;;;;;;;16.00;6.15;;;0.10;99.90;;;;;;2073839;28;20173;-67
2021/12/20 01:44:08;;;;;;;24.20;8.27;;;0.20;99.90;;;;;;2073089;28;20687;-67
2021/12/20 01:45:19;;;;;;;21.98;7.65;;;0.20;99.90;;;;;;2073016;28;20860;-67
2021/12/20 01:46:22;;;;;;;22.73;7.72;;;0.20;99.90;;;;;;2072356;28;20178;-67
2021/12/20 01:47:27;;;;;;;30.20;9.63;;;0.20;99.90;;;;;;2072798;28;20177;-67
2021/12/20 01:48:30;;;;;;;21.85;8.27;;;0.30;99.90;;;;;;2073629;28;20198;-67
2021/12/20 01:49:39;;;;;;;29.00;9.13;;;0.30;99.90;;;;;;2073618;28;20244;-67
2021/12/20 01:52:11;;;;;;;15.68;6.63;;;0.40;99.90;;;;;;2073176;28;20657;-67
2021/12/20 01:53:17;;;;;;;20.92;7.40;;;0.40;99.90;;;;;;2073394;28;20181;-67
2021/12/20 01:54:17;;;;;;;21.38;7.25;;;0.40;99.90;;;;;;2073692;28;20196;-67
2021/12/20 01:55:20;;;;;;;20.37;7.67;;;0.40;99.90;;;;;;2073573;28;20312;-68
2021/12/20 01:56:21;;;;;;;31.30;8.45;;;0.30;99.90;;;;;;2073529;28;20169;-67
2021/12/20 01:57:23;;;;;;;15.33;6.17;;;0.20;99.90;;;;;;2073551;28;20256;-67
2021/12/20 01:58:26;;;;;;;28.20;7.75;;;0.20;99.90;;;;;;2073699;28;20248;-67
2021/12/20 01:59:28;;;;;;;25.40;7.32;;;0.20;99.90;;;;;;2072940;28;20201;-67
2021/12/20 02:00:30;;;;;;;14.02;6.00;;;0.10;99.90;;;;;;2073085;28;20239;-67
2021/12/20 02:01:32;;;;;;;26.13;8.55;;;0.20;99.90;;;;;;2073043;28;20213;-67
2021/12/20 02:02:32;;;;;;;22.60;7.43;;;0.20;99.90;;;;;;2072913;28;20178;-67
2021/12/20 02:03:40;;;;;;;19.97;7.47;;;0.20;99.90;;;;;;2073615;28;20178;-67
2021/12/20 02:04:47;;;;;;;16.17;6.35;;;0.20;99.90;;;;;;2072890;28;20559;-68
2021/12/20 02:05:52;;;;;;;24.38;6.88;;;0.20;99.90;;;;;;2073043;28;20182;-67
2021/12/20 02:06:54;;;;;;;24.77;7.50;;;0.20;99.90;;;;;;2073525;28;20240;-67
2021/12/20 02:08:02;;;;;;;23.95;6.60;;;0.20;99.90;;;;;;2073510;28;20197;-67
2021/12/20 02:09:09;;;;;;;21.05;8.20;;;0.30;99.90;;;;;;2073459;28;20208;-68
2021/12/20 02:10:09;;;;;;;22.70;9.07;;;0.30;99.90;;;;;;2072956;28;20209;-68
2021/12/20 02:11:10;;;;;;;22.60;8.40;;;0.30;99.90;;;;;;2072923;28;20193;-68
2021/12/20 02:12:11;;;;;;;16.23;6.80;;;0.40;99.90;;;;;;2073523;28;20186;-68
2021/12/20 02:13:14;;;;;;;23.52;7.03;;;0.40;99.90;;;;;;2072805;28;20681;-67
2021/12/20 02:14:18;;;;;;;17.80;7.45;;;0.40;99.90;;;;;;2065079;28;20549;-68
2021/12/20 02:15:19;;;;;;;24.13;7.53;;;0.40;99.90;;;;;;2072762;28;20185;-68
2021/12/20 02:16:20;;;;;;;23.67;7.20;;;0.40;99.90;;;;;;2072919;28;20182;-68
2021/12/20 02:17:21;;;;;;;16.55;6.68;;;0.40;99.90;;;;;;2064758;28;20186;-68
2021/12/20 02:18:22;;;;;;;16.93;5.63;;;0.30;99.90;;;;;;2072960;28;20197;-67
2021/12/20 02:19:25;;;;;;;24.10;7.23;;;0.20;99.90;;;;;;2073347;28;20201;-68
2021/12/20 02:20:29;;;;;;;18.60;6.50;;;0.10;99.90;;;;;;2073493;28;20547;-68
2021/12/20 02:21:32;;;;;;;15.70;6.82;;;0.10;99.90;;;;;;2073378;28;20193;-67
2021/12/20 02:22:32;;;;;;;15.52;6.90;;;0.10;99.90;;;;;;2072776;28;20166;-68
2021/12/20 02:23:33;;;;;;;15.67;5.97;;;0.10;99.90;;;;;;2072621;28;20272;-68
2021/12/20 02:24:34;;;;;;;15.90;6.50;;;0.20;99.90;;;;;;2073265;28;20170;-67
2021/12/20 02:25:36;;;;;;;17.17;6.77;;;0.20;99.90;;;;;;2073363;28;20186;-68
2021/12/20 02:26:36;;;;;;;11.27;4.60;;;0.20;99.90;;;;;;2072790;28;20702;-68
2021/12/20 02:27:37;;;;;;;12.27;4.40;;;0.20;99.90;;;;;;2064736;28;20198;-68
2021/12/20 02:28:43;;;;;;;8.83;4.70;;;0.10;99.90;;;;;;2072647;28;20254;-68
2021/12/20 02:29:59;;;;;;;14.25;5.68;;;0.00;99.90;;;;;;2073433;28;20190;-68
2021/12/20 02:37:34;;;;;;;14.13;6.07;;;0.10;99.90;;;;;;2080915;28;20181;-68
2021/12/20 02:38:36;;;;;;;13.47;5.43;;;0.20;99.90;;;;;;2080909;28;20672;-68
2021/12/20 02:39:38;;;;;;;18.52;6.65;;;0.10;99.90;;;;;;2081496;28;20702;-68
2021/12/20 02:40:39;;;;;;;15.00;6.07;;;0.10;99.90;;;;;;2081457;28;20173;-68
2021/12/20 02:41:41;;;;;;;16.73;7.67;;;0.20;99.90;;;;;;2081485;28;20272;-67
2021/12/20 02:42:42;;;;;;;14.70;6.30;;;0.20;99.90;;;;;;2081451;28;20165;-67
2021/12/20 02:43:55;;;;;;;14.82;5.47;;;0.20;99.90;;;;;;2081454;28;20181;-68
2021/12/20 02:45:15;;;;;;;13.60;6.32;;;0.20;99.90;;;;;;2076147;28;20715;-68
2021/12/20 02:47:44;;;;;;;10.20;5.30;;;0.20;99.90;;;;;;2073146;28;20178;-68
2021/12/20 02:48:45;;;;;;;14.13;5.63;;;0.20;99.90;;;;;;2072629;28;20253;-68
2021/12/20 02:49:46;;;;;;;11.23;5.60;;;0.30;99.90;;;;;;2072629;28;20680;-68
2021/12/20 02:50:46;;;;;;;12.87;5.93;;;0.30;99.90;;;;;;2073103;28;20582;-68
2021/12/20 02:51:52;;;;;;;12.97;5.57;;;0.30;99.90;;;;;;2073263;28;20577;-68
2021/12/20 02:52:52;;;;;;;12.43;5.50;;;0.20;99.90;;;;;;2072625;28;20184;-68
2021/12/20 02:53:55;;;;;;;16.73;5.47;;;0.20;99.90;;;;;;2072683;28;20837;-68
2021/12/20 02:54:56;;;;;;;11.57;5.40;;;0.20;99.90;;;;;;2073018;28;20170;-67
2021/12/20 02:55:57;;;;;;;15.97;6.47;;;0.20;99.90;;;;;;2073218;28;20162;-68
2021/12/20 02:56:57;;;;;;;15.50;6.20;;;0.20;99.90;;;;;;2073076;28;20661;-68
2021/12/20 02:57:58;;;;;;;16.63;6.60;;;0.20;99.90;;;;;;2073136;28;20197;-68
2021/12/20 02:58:59;;;;;;;15.40;7.43;;;0.30;99.90;;;;;;2073094;28;20186;-68
2021/12/20 03:00:00;;;;;;;27.45;7.53;;;0.20;99.90;;;;;;2072720;28;20182;-68
2021/12/20 03:01:00;;;;;;;12.40;5.53;;;0.20;99.90;;;;;;2072488;28;20205;-67
2021/12/20 03:02:07;;;;;;;14.83;5.90;;;0.20;99.90;;;;;;2073160;28;20176;-68
2021/12/20 03:03:08;;;;;;;10.98;5.32;;;0.20;99.90;;;;;;2073132;28;20703;-68
2021/12/20 03:04:10;;;;;;;12.98;6.13;;;0.20;99.90;;;;;;2073189;28;20767;-68
2021/12/20 03:05:12;;;;;;;14.52;6.70;;;0.20;99.90;;;;;;2072387;28;20232;-68
2021/12/20 03:06:23;;;;;;;13.00;6.82;;;0.20;99.90;;;;;;2072417;28;20280;-68
2021/12/20 03:07:26;;;;;;;19.10;7.03;;;0.20;99.90;;;;;;2073074;28;20181;-68
2021/12/20 03:08:27;;;;;;;18.17;7.68;;;0.20;99.90;;;;;;2073170;28;20261;-67
2021/12/20 03:09:34;;;;;;;16.90;7.07;;;0.10;99.90;;;;;;2073089;28;20201;-67
2021/12/20 03:10:39;;;;;;;19.58;7.70;;;0.10;99.90;;;;;;2072659;28;20292;-68
2021/12/20 03:11:41;;;;;;;23.05;7.60;;;0.00;99.90;;;;;;2072722;28;20182;-68
2021/12/20 03:12:42;;;;;;;22.85;7.40;;;0.10;99.90;;;;;;2072563;28;20174;-68
2021/12/20 03:13:45;;;;;;;18.73;6.87;;;0.10;99.90;;;;;;2072501;28;20182;-68
2021/12/20 03:14:49;;;;;;;17.60;5.80;;;0.10;99.90;;;;;;2073011;28;20685;-68
2021/12/20 03:15:49;;;;;;;21.95;7.75;;;0.10;99.90;;;;;;2072956;28;20188;-68
2021/12/20 03:16:50;;;;;;;20.80;7.17;;;0.10;99.90;;;;;;2072900;28;20189;-68
2021/12/20 03:17:57;;;;;;;19.70;7.60;;;0.10;99.90;;;;;;2072466;28;20178;-68
2021/12/20 03:18:58;;;;;;;17.40;7.28;;;0.10;99.90;;;;;;2065199;28;20186;-68
2021/12/20 03:19:58;;;;;;;20.57;8.33;;;0.10;99.90;;;;;;2072498;28;20177;-68
2021/12/20 03:20:59;;;;;;;15.93;7.00;;;0.10;99.90;;;;;;2076454;28;20180;-68
2021/12/20 03:22:01;;;;;;;19.97;8.00;;;0.20;99.90;;;;;;2075762;28;20196;-68
2021/12/20 03:23:02;;;;;;;23.95;9.32;;;0.20;99.90;;;;;;2072498;28;20731;-67
2021/12/20 03:24:04;;;;;;;28.13;8.53;;;0.20;99.90;;;;;;2072569;28;20227;-68
2021/12/20 03:25:05;;;;;;;12.35;5.97;;;0.20;99.90;;;;;;2073020;28;20173;-67
2021/12/20 03:26:06;;;;;;;15.82;6.47;;;0.20;99.90;;;;;;2073133;28;20181;-67
2021/12/20 03:27:07;;;;;;;15.75;7.40;;;0.20;99.90;;;;;;2073038;28;20655;-67
2021/12/20 03:28:08;;;;;;;24.13;9.70;;;0.20;99.90;;;;;;2072957;28;20181;-67
2021/12/20 03:29:08;;;;;;;16.53;6.40;;;0.20;99.90;;;;;;2072999;28;20193;-68
2021/12/20 03:30:12;;;;;;;20.07;7.00;;;0.30;99.90;;;;;;2072499;28;20221;-68
2021/12/20 03:31:13;;;;;;;28.27;8.68;;;0.30;99.90;;;;;;2072359;28;20294;-67
2021/12/20 03:32:14;;;;;;;21.93;8.90;;;0.30;99.90;;;;;;2072369;28;20233;-68
2021/12/20 03:33:15;;;;;;;15.83;7.20;;;0.30;99.90;;;;;;2072411;28;20421;-68
2021/12/20 03:34:16;;;;;;;21.00;7.47;;;0.40;99.90;;;;;;2072398;28;20178;-68
2021/12/20 03:35:17;;;;;;;32.58;8.32;;;0.30;99.90;;;;;;2072848;28;20213;-67
2021/12/20 03:36:18;;;;;;;35.10;9.77;;;0.30;99.90;;;;;;2072956;28;20191;-68
2021/12/20 03:37:19;;;;;;;22.47;8.07;;;0.30;99.90;;;;;;2072864;28;20189;-68
2021/12/20 03:38:20;;;;;;;17.48;7.18;;;0.30;99.90;;;;;;2072891;28;20178;-67
2021/12/20 03:39:21;;;;;;;16.73;6.97;;;0.30;99.90;;;;;;2072828;28;20280;-67
2021/12/20 03:40:21;;;;;;;20.53;7.60;;;0.20;99.90;;;;;;2072456;28;20450;-68
2021/12/20 03:41:23;;;;;;;16.17;8.00;;;0.20;99.90;;;;;;2072328;28;20186;-67
2021/12/20 03:42:24;;;;;;;21.30;8.38;;;0.20;99.90;;;;;;2072967;28;20649;-68
2021/12/20 03:43:31;;;;;;;19.23;8.20;;;0.20;99.90;;;;;;2072898;28;20181;-67
2021/12/20 03:44:33;;;;;;;20.30;8.25;;;0.20;99.90;;;;;;2072338;28;20184;-68
2021/12/20 03:45:36;;;;;;;17.45;7.45;;;0.20;99.90;;;;;;2072322;28;20565;-67
2021/12/20 03:46:37;;;;;;;18.30;7.90;;;0.20;99.90;;;;;;2072869;28;20181;-68
2021/12/20 03:47:37;;;;;;;17.10;7.80;;;0.20;99.90;;;;;;2072865;28;20181;-68
2021/12/20 03:48:38;;;;;;;17.17;8.17;;;0.20;99.90;;;;;;2072195;28;20612;-68
2021/12/20 03:49:41;;;;;;;19.17;7.50;;;0.20;99.90;;;;;;2072202;28;20243;-68
2021/12/20 03:50:42;;;;;;;17.38;6.80;;;0.20;99.90;;;;;;2072957;28;20184;-68
2021/12/20 03:51:43;;;;;;;15.43;7.67;;;0.20;99.90;;;;;;2072853;28;20182;-68
2021/12/20 03:52:44;;;;;;;19.33;7.93;;;0.30;99.90;;;;;;2072955;28;20557;-68
2021/12/20 03:53:44;;;;;;;26.77;9.33;;;0.30;99.90;;;;;;2072855;28;20174;-68
2021/12/20 03:54:45;;;;;;;14.13;6.93;;;0.30;99.90;;;;;;2072683;28;20198;-68
2021/12/20 03:55:46;;;;;;;19.60;9.97;;;0.30;99.90;;;;;;2072894;28;20669;-68
2021/12/20 03:56:47;;;;;;;17.80;8.03;;;0.40;99.90;;;;;;2072299;28;20232;-68
2021/12/20 03:57:48;;;;;;;22.07;8.47;;;0.30;99.90;;;;;;2072170;28;20261;-68
2021/12/20 03:58:48;;;;;;;19.67;8.55;;;0.40;99.90;;;;;;2072858;28;20253;-68
2021/12/20 03:59:49;;;;;;;18.37;8.77;;;0.40;99.90;;;;;;2072887;28;20181;-68
2021/12/20 04:00:50;;;;;;;28.53;9.80;;;0.40;99.90;;;;;;2072921;28;20176;-68
2021/12/20 04:01:51;;;;;;;22.33;8.37;;;0.40;99.90;;;;;;2072848;28;20170;-67
2021/12/20 04:02:52;;;;;;;15.30;7.82;;;0.40;99.90;;;;;;2072986;28;20578;-68
2021/12/20 04:03:53;;;;;;;17.38;7.45;;;0.40;99.90;;;;;;2072837;28;20204;-67
2021/12/20 04:04:54;;;;;;;16.50;7.00;;;0.50;99.90;;;;;;2072686;28;20840;-67
2021/12/20 04:05:54;;;;;;;14.03;6.40;;;0.40;99.90;;;;;;2071860;28;20594;-68
2021/12/20 04:06:55;;;;;;;17.27;8.50;;;0.40;99.90;;;;;;2072199;28;20207;-68
2021/12/20 04:07:56;;;;;;;17.67;8.33;;;0.50;99.90;;;;;;2072804;28;20664;-68
2021/12/20 04:08:56;;;;;;;20.20;8.70;;;0.50;99.90;;;;;;2072796;28;20232;-68
2021/12/20 04:09:58;;;;;;;16.87;7.83;;;0.50;99.90;;;;;;2073406;28;20196;-68
2021/12/20 04:10:59;;;;;;;16.35;7.28;;;0.50;99.90;;;;;;2074006;28;20181;-68
2021/12/20 04:11:59;;;;;;;21.15;9.32;;;0.50;99.90;;;;;;2073857;28;20181;-68
2021/12/20 04:13:00;;;;;;;13.80;7.23;;;0.60;99.90;;;;;;2074518;28;20176;-68
2021/12/20 04:14:01;;;;;;;19.50;8.83;;;0.60;99.90;;;;;;2074561;28;20228;-68
2021/12/20 04:15:03;;;;;;;16.30;8.37;;;0.60;99.90;;;;;;2074422;28;20170;-68
2021/12/20 04:16:04;;;;;;;19.17;9.73;;;0.50;99.90;;;;;;2074395;28;20419;-68
2021/12/20 04:17:05;;;;;;;18.13;8.55;;;0.50;99.90;;;;;;2074473;28;20252;-68
2021/12/20 04:18:06;;;;;;;21.30;10.10;;;0.50;99.90;;;;;;2074546;28;20665;-67
2021/12/20 04:19:06;;;;;;;26.47;11.57;;;0.50;99.90;;;;;;2074640;28;20194;-67
2021/12/20 04:20:08;;;;;;;17.00;8.93;;;0.60;99.90;;;;;;2074416;28;20216;-68
2021/12/20 04:21:10;;;;;;;19.33;8.68;;;0.60;99.90;;;;;;2074422;28;20179;-67
2021/12/20 04:22:11;;;;;;;19.08;9.85;;;0.60;99.90;;;;;;2074506;28;20202;-68
2021/12/20 04:23:12;;;;;;;16.77;8.53;;;0.60;99.90;;;;;;2074407;28;20173;-67
2021/12/20 04:24:12;;;;;;;17.60;8.50;;;0.60;99.90;;;;;;2073906;28;20664;-68
2021/12/20 04:25:13;;;;;;;18.97;8.53;;;0.70;99.90;;;;;;2073644;28;20951;-68
2021/12/20 04:26:14;;;;;;;18.33;8.97;;;0.70;99.90;;;;;;2074454;28;20178;-68
2021/12/20 04:27:15;;;;;;;18.25;9.07;;;0.70;99.90;;;;;;2074655;28;20181;-68
2021/12/20 04:28:15;;;;;;;13.90;7.00;;;0.70;99.90;;;;;;2073888;28;20178;-68
2021/12/20 04:29:16;;;;;;;19.40;8.17;;;0.70;99.90;;;;;;2073700;28;20197;-68
2021/12/20 04:30:17;;;;;;;15.57;7.87;;;0.70;99.90;;;;;;2074293;28;20206;-68
2021/12/20 04:31:18;;;;;;;18.98;8.35;;;0.80;99.90;;;;;;2074293;28;20178;-68
2021/12/20 04:32:18;;;;;;;17.33;8.63;;;0.70;99.90;;;;;;2074296;28;20201;-68
2021/12/20 04:33:20;;;;;;;18.17;8.07;;;0.70;99.90;;;;;;2074280;28;20228;-68
2021/12/20 04:34:21;;;;;;;18.60;8.90;;;0.70;99.90;;;;;;2074412;28;20264;-68
2021/12/20 04:35:21;;;;;;;18.83;9.23;;;0.70;99.90;;;;;;2074296;28;20675;-68
2021/12/20 04:36:22;;;;;;;17.27;8.27;;;0.70;99.90;;;;;;2073723;28;20253;-68
2021/12/20 04:37:23;;;;;;;17.80;8.50;;;0.70;99.90;;;;;;2073486;28;20714;-68
2021/12/20 04:38:26;;;;;;;24.20;10.67;;;0.70;99.90;;;;;;2074251;28;20174;-68
2021/12/20 04:39:30;;;;;;;15.52;8.88;;;0.70;99.90;;;;;;2073441;28;20196;-68
2021/12/20 04:40:31;;;;;;;17.50;7.70;;;0.70;99.90;;;;;;2080497;28;20201;-69
2021/12/20 04:41:31;;;;;;;15.30;7.23;;;0.70;99.90;;;;;;2082484;28;20204;-68
2021/12/20 04:42:32;;;;;;;14.17;7.27;;;0.70;99.90;;;;;;2082355;28;20581;-68
2021/12/20 04:43:33;;;;;;;20.77;10.20;;;0.70;99.90;;;;;;2081760;28;20181;-68
2021/12/20 04:44:35;;;;;;;22.13;10.37;;;0.70;99.90;;;;;;2081671;28;20173;-68
2021/12/20 04:45:36;;;;;;;19.95;10.02;;;0.70;99.90;;;;;;2082389;28;20180;-68
2021/12/20 04:46:37;;;;;;;17.30;9.00;;;0.70;99.90;;;;;;2082371;28;20208;-68
2021/12/20 04:47:37;;;;;;;19.30;9.07;;;0.70;99.90;;;;;;2080646;28;20178;-68
2021/12/20 04:48:38;;;;;;;18.63;9.70;;;0.70;99.90;;;;;;2075232;28;20189;-68
2021/12/20 04:49:39;;;;;;;18.63;9.20;;;0.70;99.90;;;;;;2073624;28;20201;-68
2021/12/20 04:50:40;;;;;;;19.43;10.10;;;0.70;99.90;;;;;;2073570;28;20243;-68
2021/12/20 04:51:41;;;;;;;22.83;9.57;;;0.70;99.90;;;;;;2074208;28;20191;-68
2021/12/20 04:52:42;;;;;;;15.17;8.20;;;0.80;99.90;;;;;;2074273;28;20174;-68
2021/12/20 04:53:42;;;;;;;17.55;8.73;;;0.80;99.90;;;;;;2074023;28;20178;-68
2021/12/20 04:54:43;;;;;;;21.27;10.87;;;0.80;99.90;;;;;;2074042;28;20178;-67
2021/12/20 04:55:44;;;;;;;19.03;9.83;;;0.80;99.90;;;;;;2074114;28;20174;-68
2021/12/20 04:56:45;;;;;;;18.80;11.13;;;0.80;99.80;;;;;;2074058;28;20185;-68
2021/12/20 04:57:47;;;;;;;21.87;12.13;;;0.80;99.80;;;;;;2074067;28;20174;-68
2021/12/20 04:58:49;;;;;;;16.88;9.95;;;0.80;99.80;;;;;;2073446;28;20174;-68
2021/12/20 04:59:49;;;;;;;13.88;8.50;;;0.80;99.80;;;;;;2073437;28;20182;-67
2021/12/20 05:00:50;;;;;;;13.93;7.17;;;0.80;99.50;;;;;;2073620;28;20201;-68
2021/12/20 05:01:51;;;;;;;15.43;8.80;;;0.80;99.50;;;;;;2074053;28;20249;-67
2021/12/20 05:02:52;;;;;;;14.43;8.23;;;0.70;99.50;;;;;;2074142;28;20253;-68
2021/12/20 05:03:52;;;;;;;15.82;7.60;;;0.70;99.70;;;;;;2074070;28;20235;-68
2021/12/20 05:04:53;;;;;;;17.07;9.07;;;0.60;99.70;;;;;;2073988;28;20185;-68
2021/12/20 05:05:54;;;;;;;18.93;8.93;;;0.60;99.90;;;;;;2073970;28;20178;-68
2021/12/20 05:06:54;;;;;;;17.63;7.70;;;0.60;99.90;;;;;;2074059;28;20244;-67
2021/12/20 05:07:56;;;;;;;16.67;9.00;;;0.60;99.90;;;;;;2074131;28;20644;-68
2021/12/20 05:08:56;;;;;;;16.95;8.32;;;0.60;99.90;;;;;;2073932;28;20247;-67
2021/12/20 05:10:01;;;;;;;17.70;8.20;;;0.70;99.90;;;;;;2073390;28;20619;-68
2021/12/20 05:11:05;;;;;;;14.70;7.80;;;0.70;99.90;;;;;;2073439;28;20178;-68
2021/12/20 05:12:12;;;;;;;14.25;7.45;;;0.70;99.90;;;;;;2073487;28;20181;-68
2021/12/20 05:13:13;;;;;;;16.42;7.78;;;0.70;99.80;;;;;;2066371;28;20314;-68
2021/12/20 05:14:14;;;;;;;13.30;6.72;;;0.70;99.80;;;;;;2073306;28;20201;-68
2021/12/20 05:15:15;;;;;;;15.10;7.83;;;0.70;99.70;;;;;;2073287;28;20641;-68
2021/12/20 05:16:16;;;;;;;15.50;8.93;;;0.70;99.70;;;;;;2073362;28;20633;-68
2021/12/20 05:17:17;;;;;;;19.70;9.68;;;0.60;99.80;;;;;;2073839;28;20170;-68
2021/12/20 05:18:17;;;;;;;20.20;9.80;;;0.60;99.90;;;;;;2073964;28;20178;-68
2021/12/20 05:19:18;;;;;;;20.43;11.03;;;0.70;99.90;;;;;;2073909;28;20190;-68
2021/12/20 05:20:19;;;;;;;25.30;13.10;;;0.70;99.90;;;;;;2073881;28;20173;-68
2021/12/20 05:21:19;;;;;;;21.70;11.87;;;0.70;99.90;;;;;;2072969;28;20209;-67
2021/12/20 05:22:20;;;;;;;22.50;11.60;;;0.70;99.90;;;;;;2073657;28;20425;-68
2021/12/20 05:23:21;;;;;;;22.23;12.17;;;0.70;99.90;;;;;;2073871;28;20170;-68
2021/12/20 05:24:22;;;;;;;20.73;10.50;;;0.70;99.90;;;;;;2073960;28;20181;-67
2021/12/20 05:25:24;;;;;;;17.63;9.53;;;0.70;99.90;;;;;;2074257;28;20170;-68
2021/12/20 05:26:26;;;;;;;15.43;9.57;;;0.80;99.90;;;;;;2073932;28;20262;-68
2021/12/20 05:27:27;;;;;;;19.00;9.27;;;0.80;99.80;;;;;;2073831;28;20316;-67
2021/12/20 05:28:27;;;;;;;14.27;7.47;;;0.80;99.90;;;;;;2073917;28;20264;-68
2021/12/20 05:29:28;;;;;;;13.97;7.43;;;0.80;99.40;;;;;;2073810;28;20209;-68
2021/12/20 05:30:29;;;;;;;15.00;7.97;;;0.80;99.30;;;;;;2073800;28;20206;-68
2021/12/20 05:31:30;;;;;;;15.13;7.90;;;0.80;99.40;;;;;;2073267;28;20180;-68
2021/12/20 05:32:30;;;;;;;17.67;9.23;;;0.80;99.40;;;;;;2073436;28;20186;-68